Time;durP1;ratioP1;P1;durP2;ratioP2;P2;SDS_P1;SDS_P2;PMS_P1;PMS_P2;Temp;Humidity;BMP_temperature;BMP_pressure;BME280_temperature;BME280_humidity;BME280_pressure;Samples;Min_cycle;Max_cycle;Signal;HPM_P1;HPM_P2
2021/07/30 00:02:05;;;;;;;6.37;5.70;;;;;;;20.08;75.52;99037.50;4922696;29;20237;-88
2021/07/30 00:04:35;;;;;;;6.70;5.90;;;;;;;20.06;75.64;99038.91;4907145;29;20231;-86
2021/07/30 00:07:08;;;;;;;6.10;5.60;;;;;;;20.04;75.57;99039.19;4922814;29;20581;-87
2021/07/30 00:09:38;;;;;;;6.43;5.83;;;;;;;20.03;75.17;99025.88;4922761;29;20233;-87
2021/07/30 00:12:09;;;;;;;6.00;5.50;;;;;;;20.12;74.62;99030.34;4937516;29;20241;-87
2021/07/30 00:14:40;;;;;;;6.40;5.90;;;;;;;20.14;74.79;99044.47;4907788;29;20228;-88
2021/07/30 00:17:11;;;;;;;7.10;6.40;;;;;;;20.16;74.85;99034.09;4906659;29;20753;-87
2021/07/30 00:19:40;;;;;;;6.63;5.90;;;;;;;20.18;74.40;99039.25;4921484;29;20233;-88
2021/07/30 00:22:12;;;;;;;6.50;5.97;;;;;;;20.09;74.64;99022.78;4906958;29;20777;-87
2021/07/30 00:24:40;;;;;;;7.00;6.40;;;;;;;20.15;74.23;99027.06;4897968;29;20244;-88
2021/07/30 00:27:13;;;;;;;6.23;5.63;;;;;;;20.21;73.53;99028.56;4941996;29;20233;-87
2021/07/30 00:29:49;;;;;;;6.20;5.70;;;;;;;20.23;73.66;99033.72;4942219;29;20323;-87
2021/07/30 00:32:21;;;;;;;6.73;6.10;;;;;;;20.19;73.39;99030.78;4925707;29;20662;-87
2021/07/30 00:34:51;;;;;;;6.33;5.80;;;;;;;20.30;73.38;99036.03;4906847;29;20315;-87
2021/07/30 00:37:29;;;;;;;6.83;6.23;;;;;;;20.22;73.11;99029.38;4951351;28;20697;-88
2021/07/30 00:40:15;;;;;;;7.90;6.13;;;;;;;20.27;73.46;99033.94;4953956;28;20229;-87
2021/07/30 00:43:01;;;;;;;6.50;5.90;;;;;;;20.26;73.34;99044.00;4994275;28;20233;-87
2021/07/30 00:45:37;;;;;;;8.07;5.90;;;;;;;20.21;73.54;99027.75;4966592;28;20226;-87
2021/07/30 00:48:30;;;;;;;6.73;6.07;;;;;;;20.26;73.82;99035.03;4971426;28;20243;-87
2021/07/30 00:51:01;;;;;;;8.83;6.07;;;;;;;20.24;74.06;99029.91;4960378;28;20252;-87
2021/07/30 00:53:42;;;;;;;;;;;;;;;;;;;;;
2021/07/30 00:56:16;;;;;;;6.20;5.60;;;;;;;20.18;73.92;99026.44;4961048;28;20310;-87
2021/07/30 00:58:58;;;;;;;6.63;6.03;;;;;;;20.17;73.80;99035.72;4963145;28;20233;-87
2021/07/30 01:01:37;;;;;;;6.40;5.80;;;;;;;20.14;73.81;99030.88;4976933;28;20231;-86
2021/07/30 01:04:07;;;;;;;5.90;5.40;;;;;;;20.15;73.54;99031.69;4960571;28;20314;-87
2021/07/30 01:06:35;;;;;;;6.30;5.80;;;;;;;20.10;74.02;99035.28;4976547;28;20239;-87
2021/07/30 01:09:11;;;;;;;6.27;5.67;;;;;;;20.09;73.85;99028.22;4975550;28;20726;-87
2021/07/30 01:12:19;;;;;;;6.30;5.70;;;;;;;20.07;73.99;99026.91;4953196;28;20248;-88
2021/07/30 01:15:00;;;;;;;6.67;6.07;;;;;;;20.03;74.02;99015.81;4975619;28;20261;-88
2021/07/30 01:17:49;;;;;;;7.03;5.77;;;;;;;20.00;74.40;99021.03;4974780;28;20330;-88
2021/07/30 01:20:29;;;;;;;6.70;6.20;;;;;;;20.00;74.61;99016.41;4951753;28;20320;-88
2021/07/30 01:23:01;;;;;;;7.93;5.93;;;;;;;19.92;74.54;99022.53;4939456;28;20684;-88
2021/07/30 01:25:51;;;;;;;6.60;6.07;;;;;;;19.82;74.93;99008.28;4976268;28;20285;-87
2021/07/30 01:28:48;;;;;;;6.40;5.90;;;;;;;19.79;74.92;99026.78;4976507;28;20225;-88
2021/07/30 01:31:31;;;;;;;7.07;6.50;;;;;;;19.70;75.22;99033.16;4956371;28;20713;-88
2021/07/30 01:34:22;;;;;;;6.73;6.13;;;;;;;19.57;75.70;99036.59;4963698;28;20230;-88
2021/07/30 01:37:14;;;;;;;7.00;6.30;;;;;;;19.49;76.12;99031.84;4957729;28;20239;-88
2021/07/30 01:39:49;;;;;;;7.47;6.77;;;;;;;19.51;76.29;99037.78;4965289;28;20659;-88
2021/07/30 01:42:41;;;;;;;7.17;6.57;;;;;;;19.44;76.68;99034.63;4974986;28;20232;-89
2021/07/30 01:45:10;;;;;;;6.70;6.10;;;;;;;19.34;76.89;99024.66;4944582;28;20231;-88
2021/07/30 01:47:39;;;;;;;7.57;6.40;;;;;;;19.38;77.02;99020.25;4938642;28;20249;-88
2021/07/30 01:50:10;;;;;;;8.67;6.23;;;;;;;19.35;77.14;99026.28;4942698;28;20313;-88
2021/07/30 01:52:43;;;;;;;7.43;5.87;;;;;;;19.31;77.51;99009.75;4944403;28;20312;-89
2021/07/30 01:55:15;;;;;;;6.63;6.10;;;;;;;19.25;77.62;99015.53;4944231;28;20237;-89
2021/07/30 01:58:06;;;;;;;7.07;6.57;;;;;;;19.17;77.55;99006.13;4965207;28;20659;-88
2021/07/30 02:00:41;;;;;;;6.70;6.17;;;;;;;19.15;77.78;99012.94;4944912;28;20239;-89
2021/07/30 02:03:09;;;;;;;6.97;6.37;;;;;;;19.11;78.07;99012.72;4943802;28;20616;-88
2021/07/30 02:05:57;;;;;;;6.93;6.33;;;;;;;18.99;78.50;99009.59;4959369;28;20304;-88
2021/07/30 02:08:39;;;;;;;6.60;6.00;;;;;;;18.96;79.22;99020.22;4923726;28;20236;-88
2021/07/30 02:11:13;;;;;;;6.90;5.80;;;;;;;18.94;79.05;99006.16;4960201;28;20235;-88
2021/07/30 02:16:34;;;;;;;6.70;6.10;;;;;;;18.85;78.98;99012.19;4974956;28;20241;-90
2021/07/30 02:19:10;;;;;;;7.63;6.17;;;;;;;18.88;79.06;99016.25;4974096;28;20693;-87
2021/07/30 02:21:41;;;;;;;7.73;6.17;;;;;;;18.82;79.33;99017.41;4958889;28;20234;-90
2021/07/30 02:24:10;;;;;;;6.70;6.10;;;;;;;18.82;79.12;99012.78;4959110;28;20233;-87
2021/07/30 02:26:48;;;;;;;7.07;6.47;;;;;;;18.82;79.25;99017.41;4962403;28;20254;-90
2021/07/30 02:29:27;;;;;;;7.10;6.50;;;;;;;18.72;79.21;99012.06;4962287;28;20238;-89
2021/07/30 02:31:55;;;;;;;7.17;6.00;;;;;;;18.75;79.13;99022.38;4939550;28;20238;-87
2021/07/30 02:34:26;;;;;;;8.63;6.50;;;;;;;18.72;79.42;99031.88;4952369;28;20249;-89
2021/07/30 02:36:56;;;;;;;7.47;6.43;;;;;;;18.68;79.70;99021.88;4968919;28;20273;-88
2021/07/30 02:39:30;;;;;;;7.50;6.30;;;;;;;18.61;79.63;99019.53;4945544;28;20232;-88
2021/07/30 02:41:58;;;;;;;7.20;6.60;;;;;;;18.62;79.78;99023.84;4959153;28;20224;-88
2021/07/30 02:44:34;;;;;;;7.30;6.60;;;;;;;18.62;79.95;99033.88;4974604;28;20296;-88
2021/07/30 02:47:07;;;;;;;7.30;6.60;;;;;;;18.57;80.13;99025.81;4973988;28;20319;-90
2021/07/30 02:49:46;;;;;;;7.47;6.77;;;;;;;18.54;80.43;99029.88;4960099;28;20252;-90
2021/07/30 02:52:15;;;;;;;6.67;6.00;;;;;;;18.49;80.95;99027.19;4968086;28;20248;-90
2021/07/30 02:54:46;;;;;;;7.30;6.60;;;;;;;18.41;80.81;99015.06;4994772;28;20231;-90
2021/07/30 02:57:24;;;;;;;8.03;6.50;;;;;;;18.36;80.88;99020.53;4940468;28;20717;-91
2021/07/30 02:59:52;;;;;;;7.03;6.40;;;;;;;18.29;80.86;99017.31;4963328;28;20303;-91
2021/07/30 03:02:21;;;;;;;7.00;6.37;;;;;;;18.31;80.65;99019.75;4946829;28;20220;-88
2021/07/30 03:04:58;;;;;;;7.30;6.70;;;;;;;18.37;80.62;99027.59;4954729;28;20227;-90
2021/07/30 03:07:33;;;;;;;6.70;6.10;;;;;;;18.38;80.66;99033.81;4946651;28;20261;-91
2021/07/30 03:10:07;;;;;;;7.47;6.77;;;;;;;18.34;80.89;99028.13;4960574;28;20702;-90
2021/07/30 03:12:40;;;;;;;7.30;6.60;;;;;;;18.30;80.53;99020.84;4993767;28;20239;-91
2021/07/30 03:15:12;;;;;;;7.17;6.53;;;;;;;18.26;80.64;99017.91;4946646;28;20254;-91
2021/07/30 03:17:54;;;;;;;6.87;6.17;;;;;;;18.25;80.69;99018.19;4961754;28;20740;-89
2021/07/30 03:20:22;;;;;;;7.10;6.50;;;;;;;18.18;80.39;99004.97;4962818;28;20270;-90
2021/07/30 03:22:53;;;;;;;7.03;6.43;;;;;;;18.23;80.30;99013.06;4982177;28;20224;-90
2021/07/30 03:25:20;;;;;;;7.20;6.50;;;;;;;18.27;80.51;99024.94;4965173;28;20232;-90
2021/07/30 03:27:51;;;;;;;7.70;6.90;;;;;;;18.23;80.44;99017.66;4948414;28;20258;-90
2021/07/30 03:30:45;;;;;;;7.17;6.53;;;;;;;18.21;80.52;99014.41;4979320;28;20241;-91
2021/07/30 03:33:19;;;;;;;7.80;6.80;;;;;;;18.28;80.35;99028.47;4967834;28;20228;-90
2021/07/30 03:36:08;;;;;;;7.03;6.53;;;;;;;18.23;80.40;99023.91;4978519;28;20323;-90
2021/07/30 03:38:41;;;;;;;7.83;6.63;;;;;;;18.30;80.68;99023.56;4950280;28;20227;-91
2021/07/30 03:41:12;;;;;;;7.20;6.50;;;;;;;18.36;80.46;99030.56;4977659;28;20235;-89
2021/07/30 03:43:54;;;;;;;7.00;6.40;;;;;;;18.36;80.52;99025.16;4962915;28;20228;-90
2021/07/30 03:46:30;;;;;;;7.57;6.53;;;;;;;18.37;80.18;99022.16;4952498;28;20227;-91
2021/07/30 03:49:00;;;;;;;6.90;6.30;;;;;;;18.50;80.10;99034.25;4962534;28;20224;-90
2021/07/30 03:51:41;;;;;;;7.10;6.40;;;;;;;18.46;79.82;99023.16;4961670;28;20252;-89
2021/07/30 03:54:15;;;;;;;7.20;6.50;;;;;;;18.51;79.95;99029.63;4960608;28;20239;-89
2021/07/30 03:57:08;;;;;;;6.90;6.30;;;;;;;18.52;79.60;99026.63;4954131;28;20235;-90
2021/07/30 03:59:36;;;;;;;7.37;6.70;;;;;;;18.61;79.61;99046.66;4952880;28;20253;-89
2021/07/30 04:02:03;;;;;;;7.53;6.73;;;;;;;18.73;79.76;99044.34;4977780;28;20227;-89
2021/07/30 04:04:39;;;;;;;7.03;6.33;;;;;;;19.00;78.94;99035.66;4951552;28;20721;-89
2021/07/30 04:07:08;;;;;;;8.90;6.47;;;;;;;19.46;77.51;99078.59;4964461;28;20254;-90
2021/07/30 04:09:52;;;;;;;6.67;6.17;;;;;;;20.72;71.75;99114.81;4955705;28;20661;-90
2021/07/30 04:17:11;;;;;;;6.27;5.70;;;;;;;22.18;65.17;99028.47;4998890;28;20210;-91
2021/07/30 04:28:10;;;;;;;7.53;6.27;;;;;;;21.05;68.91;99047.50;4920292;29;20783;-90
2021/07/30 04:34:55;;;;;;;6.57;5.70;;;;;;;20.98;68.76;99060.75;4921208;29;20210;-88
2021/07/30 04:41:49;;;;;;;7.17;5.90;;;;;;;21.14;68.71;99055.84;4748528;30;20238;-89
2021/07/30 04:45:41;;;;;;;6.47;5.87;;;;;;;21.28;67.61;99053.91;4855894;29;20229;-89
2021/07/30 04:56:46;;;;;;;7.70;7.00;;;;;;;21.86;65.78;99049.38;4898316;28;20234;-89
2021/07/30 04:59:42;;;;;;;6.20;5.67;;;;;;;22.10;64.76;99043.69;4909148;29;20234;-87
2021/07/30 05:02:39;;;;;;;8.40;6.40;;;;;;;22.14;64.68;99031.03;4935808;29;20245;-88
2021/07/30 05:05:17;;;;;;;8.40;5.90;;;;;;;22.32;64.30;99046.41;4932788;29;20327;-88
2021/07/30 05:08:06;;;;;;;6.33;5.83;;;;;;;22.42;64.55;99047.25;4936594;28;20306;-88
2021/07/30 05:10:40;;;;;;;6.78;6.18;;;;;;;22.53;64.18;99041.25;4949643;28;20247;-88
2021/07/30 05:13:46;;;;;;;6.53;5.87;;;;;;;22.71;63.83;99040.25;4970668;28;20276;-88
2021/07/30 05:16:49;;;;;;;7.30;6.13;;;;;;;22.84;63.60;99049.47;4949600;28;20714;-89
2021/07/30 05:19:18;;;;;;;6.87;6.13;;;;;;;22.92;62.70;99045.16;4958766;28;20251;-88
2021/07/30 05:21:50;;;;;;;7.53;5.93;;;;;;;23.06;62.67;99057.59;4955821;28;20247;-88
2021/07/30 05:24:20;;;;;;;6.97;6.45;;;;;;;23.13;62.05;99052.50;4949344;28;20237;-89
2021/07/30 05:26:58;;;;;;;6.67;5.97;;;;;;;23.28;61.86;99052.06;4932827;29;20227;-89
2021/07/30 05:29:39;;;;;;;6.90;6.28;;;;;;;23.32;61.92;99040.50;4956483;28;20244;-87
2021/07/30 05:32:15;;;;;;;6.15;5.65;;;;;;;23.52;61.75;99039.94;4973975;28;20232;-87
2021/07/30 05:34:49;;;;;;;7.20;6.28;;;;;;;23.73;61.15;99049.16;4958869;28;20208;-87
2021/07/30 05:37:26;;;;;;;7.13;6.47;;;;;;;23.92;60.49;99040.63;4973754;28;20316;-88
2021/07/30 05:39:59;;;;;;;7.05;6.35;;;;;;;24.00;60.01;99043.38;4957963;29;20283;-87
2021/07/30 05:42:35;;;;;;;7.03;6.20;;;;;;;24.29;59.51;99045.50;4957888;29;20185;-88
2021/07/30 05:45:34;;;;;;;7.07;6.47;;;;;;;24.48;58.79;99040.47;4973722;28;20205;-88
2021/07/30 05:48:09;;;;;;;6.65;6.15;;;;;;;24.72;58.03;99047.34;4972563;28;20197;-87
2021/07/30 05:50:43;;;;;;;6.30;5.75;;;;;;;24.88;57.47;99041.03;4951067;28;20315;-88
2021/07/30 05:53:29;;;;;;;;;;;;;;;;;;;;;
2021/07/30 05:55:57;;;;;;;6.85;6.22;;;;;;;25.25;57.35;99046.84;4972450;28;20239;-88
2021/07/30 05:58:40;;;;;;;6.20;5.70;;;;;;;25.45;55.61;99048.84;4958245;28;20750;-87
2021/07/30 06:01:13;;;;;;;6.57;5.85;;;;;;;25.60;55.29;99048.28;4972265;28;20239;-88
2021/07/30 06:03:49;;;;;;;6.72;6.15;;;;;;;25.68;55.19;99038.38;4957881;28;20256;-87
2021/07/30 06:06:19;;;;;;;6.57;6.07;;;;;;;25.78;55.66;99060.75;4931922;28;20247;-87
2021/07/30 06:08:48;;;;;;;6.70;6.05;;;;;;;25.85;55.19;99054.72;4956718;28;20257;-88
2021/07/30 06:11:20;;;;;;;6.15;5.65;;;;;;;25.97;54.77;99054.00;4972525;28;20232;-88
2021/07/30 06:13:50;;;;;;;6.68;6.10;;;;;;;26.00;54.74;99058.81;4972419;28;20229;-87
2021/07/30 06:16:23;;;;;;;6.82;6.22;;;;;;;25.94;55.21;99058.22;4965736;28;20234;-87
2021/07/30 06:19:03;;;;;;;9.02;6.18;;;;;;;26.10;54.78;99055.66;4942111;29;20230;-88
2021/07/30 06:21:57;;;;;;;6.60;6.05;;;;;;;26.14;54.14;99057.41;4957224;28;20571;-89
2021/07/30 06:24:31;;;;;;;6.80;6.15;;;;;;;26.04;53.35;99046.03;4956927;28;20242;-89
2021/07/30 06:26:59;;;;;;;6.60;6.10;;;;;;;26.16;53.80;99054.34;4957218;28;20594;-89
2021/07/30 06:29:27;;;;;;;6.35;5.85;;;;;;;26.22;53.33;99053.03;4940369;29;20238;-89
2021/07/30 06:32:05;;;;;;;6.72;6.03;;;;;;;26.19;52.86;99046.22;4958074;28;20233;-88
2021/07/30 06:34:33;;;;;;;6.57;5.97;;;;;;;26.30;52.39;99057.63;4959015;28;20231;-88
2021/07/30 06:37:05;;;;;;;6.55;5.95;;;;;;;26.09;52.99;99046.63;4960553;28;21047;-88
2021/07/30 06:39:33;;;;;;;6.82;6.22;;;;;;;26.00;53.68;99034.91;4959702;28;21132;-88
2021/07/30 06:42:00;;;;;;;7.00;6.25;;;;;;;26.08;54.60;99044.25;4940310;28;20382;-89
2021/07/30 06:44:27;;;;;;;6.82;6.22;;;;;;;26.04;54.97;99037.78;4939385;28;20231;-89
2021/07/30 06:46:54;;;;;;;6.70;6.10;;;;;;;25.99;53.44;99032.53;4949924;28;20235;-88
2021/07/30 06:49:27;;;;;;;6.57;6.07;;;;;;;26.24;52.96;99043.31;4933667;28;20259;-88
2021/07/30 06:51:54;;;;;;;6.35;5.65;;;;;;;26.29;53.06;99048.59;4944438;28;20247;-88
2021/07/30 06:54:24;;;;;;;6.40;5.78;;;;;;;26.49;52.64;99041.47;4949407;28;20237;-88
2021/07/30 06:56:54;;;;;;;6.80;6.07;;;;;;;26.72;51.86;99041.84;4958711;28;20235;-89
2021/07/30 06:59:25;;;;;;;5.95;5.45;;;;;;;26.76;52.22;99037.28;4959846;28;20713;-88
2021/07/30 07:01:51;;;;;;;6.82;6.22;;;;;;;26.37;52.35;99035.09;4958052;28;20232;-88
2021/07/30 07:04:19;;;;;;;6.30;5.80;;;;;;;26.40;52.62;99038.00;4957910;28;20618;-88
2021/07/30 07:06:47;;;;;;;6.88;6.28;;;;;;;26.69;51.94;99032.34;4954852;28;20228;-87
2021/07/30 07:09:15;;;;;;;6.40;5.90;;;;;;;26.64;52.12;99045.50;4955653;28;20238;-88
2021/07/30 07:11:43;;;;;;;6.25;5.65;;;;;;;26.88;51.20;99036.53;4955415;28;20247;-87
2021/07/30 07:14:10;;;;;;;6.10;5.57;;;;;;;26.88;51.00;99033.78;4955673;28;20233;-87
2021/07/30 07:16:37;;;;;;;6.45;5.95;;;;;;;27.04;50.43;99027.28;4955067;28;20227;-87
2021/07/30 07:19:12;;;;;;;6.60;6.00;;;;;;;26.93;50.55;99036.31;4954180;28;20310;-87
2021/07/30 07:21:40;;;;;;;5.93;5.43;;;;;;;27.09;49.94;99029.81;4955055;28;20260;-87
2021/07/30 07:24:08;;;;;;;6.65;6.15;;;;;;;27.16;48.84;99029.22;4954236;28;20324;-88
2021/07/30 07:26:44;;;;;;;6.63;6.03;;;;;;;27.29;49.04;99027.28;4956220;28;20546;-88
2021/07/30 07:29:11;;;;;;;6.78;6.20;;;;;;;27.28;48.52;99028.44;4956413;28;20306;-88
2021/07/30 07:31:38;;;;;;;6.97;5.57;;;;;;;27.19;49.07;99025.81;4955620;28;20234;-88
2021/07/30 07:34:07;;;;;;;6.20;5.60;;;;;;;27.45;49.03;99026.25;4939640;28;20580;-88
2021/07/30 07:36:34;;;;;;;6.65;6.15;;;;;;;27.30;50.22;99026.13;4956667;28;20678;-88
2021/07/30 07:39:21;;;;;;;7.47;6.72;;;;;;;27.25;51.04;99032.66;4958915;28;20248;-88
2021/07/30 07:41:50;;;;;;;6.60;6.10;;;;;;;27.39;50.73;99026.84;4958595;28;20252;-88
2021/07/30 07:44:18;;;;;;;6.93;6.32;;;;;;;27.31;49.61;99022.22;4951728;28;20248;-88
2021/07/30 07:46:46;;;;;;;6.78;6.18;;;;;;;27.49;49.57;99024.44;4958990;28;20231;-88
2021/07/30 07:49:14;;;;;;;6.35;5.82;;;;;;;27.77;49.37;99027.25;4957917;28;20240;-87
2021/07/30 07:51:41;;;;;;;7.05;6.35;;;;;;;27.63;49.26;99024.06;4942423;28;20272;-88
2021/07/30 07:54:08;;;;;;;6.82;6.20;;;;;;;27.56;49.08;99023.84;4941806;28;20237;-88
2021/07/30 07:56:36;;;;;;;6.85;6.20;;;;;;;27.78;49.05;99023.34;4958836;28;20232;-87
2021/07/30 07:59:07;;;;;;;6.57;5.97;;;;;;;27.71;48.85;99022.34;4933756;28;20224;-88
2021/07/30 08:01:34;;;;;;;6.88;6.28;;;;;;;27.77;49.54;99026.44;4958537;28;20292;-88
2021/07/30 08:04:02;;;;;;;5.60;5.20;;;;;;;27.90;48.63;99019.78;4958460;28;20256;-88
2021/07/30 08:06:29;;;;;;;5.35;4.85;;;;;;;27.82;45.70;99031.72;4958804;28;20225;-88
2021/07/30 08:08:56;;;;;;;5.57;5.07;;;;;;;27.85;47.34;99025.53;4959214;28;20232;-89
2021/07/30 08:11:23;;;;;;;5.63;5.20;;;;;;;27.68;48.23;99025.78;4958775;28;20601;-88
2021/07/30 08:13:50;;;;;;;5.78;5.20;;;;;;;27.70;46.51;99029.00;4958997;29;20812;-88
2021/07/30 08:16:25;;;;;;;7.18;5.75;;;;;;;27.89;46.95;99023.69;4957966;28;20241;-88
2021/07/30 08:18:53;;;;;;;6.10;5.60;;;;;;;27.85;46.96;99014.50;4952245;28;20227;-88
2021/07/30 08:21:21;;;;;;;6.25;5.68;;;;;;;27.74;48.48;99016.13;4942773;29;20228;-88
2021/07/30 08:23:50;;;;;;;6.13;5.57;;;;;;;27.87;48.38;99025.97;4958537;28;20224;-88
2021/07/30 08:26:17;;;;;;;6.05;5.50;;;;;;;27.94;47.12;99029.75;4958058;28;20233;-87
2021/07/30 08:28:44;;;;;;;6.32;5.70;;;;;;;27.88;48.13;99022.88;4958274;28;20257;-88
2021/07/30 08:31:11;;;;;;;5.93;5.53;;;;;;;28.01;47.02;99027.19;4942643;29;20225;-88
2021/07/30 08:33:41;;;;;;;6.60;6.10;;;;;;;27.93;48.52;99025.38;4944780;28;20244;-87
2021/07/30 08:36:08;;;;;;;6.00;5.43;;;;;;;28.22;48.44;99032.53;4960296;28;20233;-87
2021/07/30 08:38:35;;;;;;;5.57;5.15;;;;;;;28.53;46.94;99025.50;4977389;28;20225;-87
2021/07/30 08:41:02;;;;;;;6.93;5.47;;;;;;;28.72;46.62;99034.72;4945514;28;20228;-87
2021/07/30 08:43:34;;;;;;;6.78;5.57;;;;;;;28.81;44.68;99026.28;4943643;28;20643;-88
2021/07/30 08:46:02;;;;;;;8.05;5.20;;;;;;;29.06;44.98;99018.66;4962373;28;20232;-88
2021/07/30 08:48:29;;;;;;;6.25;5.68;;;;;;;29.07;43.99;99034.81;4959320;28;20236;-88
2021/07/30 08:51:07;;;;;;;6.50;5.90;;;;;;;28.69;44.91;99032.66;4944330;28;20224;-88
2021/07/30 08:53:34;;;;;;;6.78;6.13;;;;;;;28.89;44.67;99028.84;4962523;28;20696;-88
2021/07/30 08:56:03;;;;;;;5.75;5.25;;;;;;;29.04;44.53;99027.25;4948776;28;20295;-88
2021/07/30 08:58:35;;;;;;;6.28;5.57;;;;;;;29.28;43.12;99024.31;4961384;28;20319;-88
2021/07/30 09:01:03;;;;;;;6.53;5.78;;;;;;;29.26;44.51;99018.34;4961299;28;20219;-87
2021/07/30 09:03:45;;;;;;;7.47;6.40;;;;;;;28.46;45.73;99017.84;4952889;28;20224;-89
2021/07/30 09:06:20;;;;;;;6.22;5.72;;;;;;;28.77;45.65;99011.59;4960549;28;20231;-88
2021/07/30 09:08:53;;;;;;;6.55;5.47;;;;;;;28.79;44.29;99001.00;4960760;28;20298;-87
2021/07/30 09:11:34;;;;;;;6.05;5.45;;;;;;;29.09;44.90;99004.94;4975526;28;20279;-87
2021/07/30 09:14:02;;;;;;;5.50;5.10;;;;;;;29.11;45.08;98997.13;4959663;28;20624;-88
2021/07/30 09:16:54;;;;;;;6.90;6.20;;;;;;;28.97;45.83;98994.00;4945262;28;20624;-87
2021/07/30 09:19:23;;;;;;;6.70;6.15;;;;;;;29.02;46.47;99002.03;4944513;28;20322;-88
2021/07/30 09:22:08;;;;;;;5.68;5.28;;;;;;;29.50;46.13;98997.25;4961128;28;20236;-87
2021/07/30 09:24:42;;;;;;;6.72;6.05;;;;;;;29.73;46.03;98993.44;4961065;28;20239;-89
2021/07/30 09:27:10;;;;;;;6.00;5.43;;;;;;;29.82;41.57;98993.22;4960108;28;20732;-88
2021/07/30 09:29:39;;;;;;;5.82;5.30;;;;;;;30.00;41.83;98988.88;4960234;28;20240;-88
2021/07/30 09:32:14;;;;;;;6.10;5.50;;;;;;;30.23;41.79;98986.22;4960660;28;20353;-88
2021/07/30 09:34:53;;;;;;;6.22;5.70;;;;;;;30.27;42.38;98992.59;4976314;28;20228;-88
2021/07/30 09:37:22;;;;;;;6.35;5.75;;;;;;;30.09;43.36;98981.22;4960264;28;20243;-89
2021/07/30 09:39:53;;;;;;;5.72;5.32;;;;;;;29.70;43.45;98980.38;4960502;28;20228;-88
2021/07/30 09:42:31;;;;;;;6.88;6.22;;;;;;;29.55;44.98;98980.41;4958628;28;20320;-88
2021/07/30 09:45:00;;;;;;;6.60;6.00;;;;;;;29.60;44.59;98975.41;4944141;28;20307;-88
2021/07/30 09:47:29;;;;;;;6.30;5.80;;;;;;;29.77;43.66;98969.44;4960341;28;20228;-88
2021/07/30 09:50:03;;;;;;;7.53;6.43;;;;;;;29.83;44.96;98971.94;4959901;28;20232;-88
2021/07/30 09:52:36;;;;;;;6.50;5.70;;;;;;;30.07;44.54;98957.88;4959091;28;20255;-88
2021/07/30 09:55:08;;;;;;;5.72;5.22;;;;;;;30.24;42.42;98954.63;4960068;28;20657;-88
2021/07/30 09:57:37;;;;;;;5.60;5.03;;;;;;;30.31;41.82;98963.06;4959803;28;20786;-88
2021/07/30 10:00:06;;;;;;;5.47;4.97;;;;;;;30.35;41.24;98958.41;4933886;28;20232;-88
2021/07/30 10:02:36;;;;;;;5.70;5.13;;;;;;;30.50;39.50;98957.53;4952134;28;20224;-88
2021/07/30 10:05:20;;;;;;;5.55;5.05;;;;;;;30.87;39.44;98956.97;4950127;28;20240;-88
2021/07/30 10:07:54;;;;;;;5.93;5.30;;;;;;;30.68;39.31;98952.31;4950611;28;20315;-87
2021/07/30 10:10:29;;;;;;;6.50;5.10;;;;;;;30.71;38.60;98950.75;4942502;28;20543;-87
2021/07/30 10:13:00;;;;;;;6.20;5.20;;;;;;;30.83;40.02;98943.09;4959339;28;20605;-87
2021/07/30 10:15:38;;;;;;;5.90;5.40;;;;;;;30.90;39.45;98939.63;4975632;28;20228;-88
2021/07/30 10:18:20;;;;;;;6.03;5.43;;;;;;;30.92;39.38;98943.63;4974572;28;20224;-88
2021/07/30 10:20:52;;;;;;;6.07;5.57;;;;;;;31.09;38.66;98939.56;4958705;28;20299;-88
2021/07/30 10:23:26;;;;;;;5.93;5.43;;;;;;;30.75;39.55;98924.78;4950649;28;20361;-87
2021/07/30 10:25:57;;;;;;;5.10;4.70;;;;;;;31.17;38.60;98927.44;4944356;28;20224;-87
2021/07/30 10:28:41;;;;;;;5.28;4.88;;;;;;;31.51;38.56;98928.31;4941711;28;20231;-89
2021/07/30 10:31:13;;;;;;;6.53;5.93;;;;;;;31.45;40.16;98921.50;4936994;28;20240;-87
2021/07/30 10:33:53;;;;;;;6.03;5.53;;;;;;;31.52;40.17;98920.81;4953088;28;20244;-88
2021/07/30 10:36:28;;;;;;;6.68;6.00;;;;;;;31.37;39.61;98922.56;4957566;28;20554;-88
2021/07/30 10:39:15;;;;;;;5.90;5.50;;;;;;;31.65;39.17;98917.44;4978168;28;20592;-87
2021/07/30 10:42:09;;;;;;;6.20;5.60;;;;;;;31.47;38.84;98927.47;4958202;28;20240;-87
2021/07/30 10:45:14;;;;;;;6.07;5.47;;;;;;;31.81;38.21;98912.50;4943137;28;20279;-87
2021/07/30 10:47:42;;;;;;;5.80;5.13;;;;;;;32.03;38.98;98907.19;4958963;28;20282;-87
2021/07/30 10:50:55;;;;;;;6.72;5.50;;;;;;;32.43;37.51;98909.22;4958627;28;20259;-87
2021/07/30 10:53:34;;;;;;;6.07;5.50;;;;;;;32.48;36.78;98895.78;4951931;28;20282;-87
2021/07/30 10:56:03;;;;;;;7.20;5.70;;;;;;;32.74;36.64;98890.13;4972291;28;20236;-87
2021/07/30 10:58:40;;;;;;;6.35;5.75;;;;;;;32.69;35.33;98884.13;4943156;28;20594;-88
2021/07/30 11:01:08;;;;;;;6.40;5.78;;;;;;;32.81;35.91;98883.00;4973453;28;20224;-88
2021/07/30 11:03:51;;;;;;;7.40;5.65;;;;;;;33.18;35.24;98884.47;4959211;28;20236;-88
2021/07/30 11:06:24;;;;;;;6.13;5.63;;;;;;;33.34;34.43;98878.63;4963529;28;20246;-88
2021/07/30 11:09:00;;;;;;;6.10;5.50;;;;;;;33.38;34.71;98879.44;4942897;28;20259;-88
2021/07/30 11:11:42;;;;;;;6.75;5.78;;;;;;;32.16;36.62;98878.88;4973707;28;20231;-88
2021/07/30 11:14:21;;;;;;;6.07;5.57;;;;;;;32.74;37.11;98886.53;4974240;28;20613;-87
2021/07/30 11:16:56;;;;;;;7.07;5.45;;;;;;;32.31;38.03;98874.25;4973828;28;20235;-87
2021/07/30 11:19:24;;;;;;;7.65;5.60;;;;;;;32.76;36.21;98879.41;4958325;28;20315;-87
2021/07/30 11:21:51;;;;;;;6.03;5.53;;;;;;;32.89;35.24;98879.94;4958727;28;20295;-88
2021/07/30 11:24:20;;;;;;;5.50;5.00;;;;;;;33.13;34.83;98876.50;4949877;28;20259;-88
2021/07/30 11:26:49;;;;;;;6.03;5.43;;;;;;;32.89;37.15;98870.81;4958802;28;20243;-88
2021/07/30 11:29:27;;;;;;;6.25;5.85;;;;;;;32.85;36.70;98873.53;4944026;28;20315;-87
2021/07/30 11:32:03;;;;;;;6.53;5.47;;;;;;;32.87;37.13;98871.19;4958654;28;20552;-88
2021/07/30 11:34:38;;;;;;;6.18;5.57;;;;;;;32.71;37.84;98865.09;4958316;28;20263;-88
2021/07/30 11:37:10;;;;;;;6.07;5.55;;;;;;;32.25;37.29;98875.78;4958688;28;20278;-88
2021/07/30 11:39:45;;;;;;;6.13;5.50;;;;;;;32.55;37.12;98864.56;4975302;28;20227;-87
2021/07/30 11:42:28;;;;;;;6.20;5.70;;;;;;;32.81;37.12;98855.28;4959097;28;20327;-87
2021/07/30 11:45:01;;;;;;;7.60;5.63;;;;;;;33.29;35.88;98859.56;4958948;28;20311;-88
2021/07/30 11:47:30;;;;;;;7.18;5.68;;;;;;;32.58;36.91;98847.97;4957072;28;20232;-87
2021/07/30 11:53:08;;;;;;;5.95;5.20;;;;;;;32.85;38.24;98834.69;4955579;28;20227;-88
2021/07/30 11:55:36;;;;;;;7.88;5.45;;;;;;;32.58;37.52;98830.53;4941722;28;20236;-87
2021/07/30 11:58:10;;;;;;;6.40;5.80;;;;;;;32.45;37.41;98824.50;4948023;28;20243;-87
2021/07/30 12:00:40;;;;;;;5.25;4.93;;;;;;;32.57;37.25;98820.63;4943037;28;20590;-87
2021/07/30 12:03:22;;;;;;;6.20;5.70;;;;;;;33.05;36.09;98821.34;4958470;28;20255;-88
2021/07/30 12:05:52;;;;;;;5.78;5.28;;;;;;;33.02;37.51;98822.94;4957820;28;20228;-87
2021/07/30 12:08:28;;;;;;;5.80;5.38;;;;;;;32.85;37.00;98823.59;4946007;28;20260;-88
2021/07/30 12:11:06;;;;;;;5.97;5.43;;;;;;;32.75;37.07;98827.94;4974339;28;20232;-88
2021/07/30 12:13:45;;;;;;;6.53;5.88;;;;;;;32.92;36.40;98820.88;4949781;28;20291;-87
2021/07/30 12:16:14;;;;;;;6.47;5.90;;;;;;;33.49;36.30;98821.97;4958060;28;20224;-88
2021/07/30 12:18:53;;;;;;;8.23;5.72;;;;;;;33.80;35.58;98817.72;4975330;28;20275;-88
2021/07/30 12:21:21;;;;;;;6.55;5.90;;;;;;;33.35;36.64;98807.25;4954477;28;20260;-87
2021/07/30 12:24:09;;;;;;;7.03;5.88;;;;;;;32.85;37.41;98804.19;4985231;28;20240;-87
2021/07/30 12:26:57;;;;;;;6.75;6.03;;;;;;;32.97;37.04;98814.16;4954819;28;20235;-87
2021/07/30 12:29:43;;;;;;;6.75;5.93;;;;;;;32.88;36.93;98803.44;4965620;28;20224;-88
2021/07/30 12:32:26;;;;;;;7.10;6.40;;;;;;;33.41;36.37;98808.47;4961558;28;20656;-87
2021/07/30 12:34:56;;;;;;;6.97;5.60;;;;;;;33.31;38.37;98795.34;4953064;28;20228;-87
2021/07/30 12:37:33;;;;;;;6.20;5.60;;;;;;;34.10;35.53;98797.13;4970023;28;20246;-86
2021/07/30 12:40:44;;;;;;;5.63;5.15;;;;;;;35.12;33.23;98791.47;4969021;28;20629;-88
2021/07/30 12:43:18;;;;;;;6.35;5.60;;;;;;;35.64;32.15;98791.66;4946273;28;20224;-87
2021/07/30 12:45:51;;;;;;;7.22;5.22;;;;;;;35.84;32.85;98786.38;4961271;28;20228;-87
2021/07/30 12:48:21;;;;;;;7.70;5.90;;;;;;;35.99;32.43;98787.84;4961142;28;20246;-87
2021/07/30 12:50:50;;;;;;;6.07;5.32;;;;;;;36.28;32.10;98786.47;4961410;28;20228;-88